createdAt,value
2018-09-09T00:02:23.658Z,12.57
2018-09-09T00:04:53.518Z,12.58
2018-09-09T00:07:22.069Z,11.84
2018-09-09T00:09:51.324Z,12.50
2018-09-09T00:12:20.619Z,12.46
2018-09-09T00:14:49.590Z,12.39
2018-09-09T00:17:18.188Z,12.30
2018-09-09T00:19:46.840Z,12.32
2018-09-09T00:22:15.439Z,12.34
2018-09-09T00:24:44.014Z,12.27
2018-09-09T00:27:12.584Z,12.28
2018-09-09T00:29:41.257Z,12.26
2018-09-09T00:32:09.824Z,12.26
2018-09-09T00:34:38.396Z,12.21
2018-09-09T00:37:06.905Z,12.10
2018-09-09T00:39:35.564Z,12.04
2018-09-09T00:42:04.103Z,12.00
2018-09-09T00:44:32.749Z,11.96
2018-09-09T00:47:01.323Z,11.95
2018-09-09T00:49:35.035Z,11.93
2018-09-09T00:52:09.357Z,11.89
2018-09-09T00:54:37.887Z,11.91
2018-09-09T00:57:06.726Z,11.83
2018-09-09T00:59:35.808Z,11.85
2018-09-09T01:02:04.483Z,11.79
2018-09-09T01:04:33.043Z,11.79
2018-09-09T01:07:01.640Z,11.86
2018-09-09T01:09:32.105Z,11.88
2018-09-09T01:12:01.383Z,11.89
2018-09-09T01:14:29.996Z,10.49
2018-09-09T01:16:59.969Z,11.72
2018-09-09T01:19:28.563Z,11.64
2018-09-09T01:21:57.655Z,11.64
2018-09-09T01:24:26.188Z,11.60
2018-09-09T01:26:55.366Z,11.30
2018-09-09T01:29:24.407Z,11.47
2018-09-09T01:31:53.772Z,11.47
2018-09-09T01:34:23.136Z,11.50
2018-09-09T01:36:51.793Z,11.48
2018-09-09T01:39:20.385Z,11.47
2018-09-09T01:41:48.915Z,11.38
2018-09-09T01:44:17.812Z,11.35
2018-09-09T01:46:46.780Z,11.24
2018-09-09T01:49:15.333Z,11.15
2018-09-09T01:51:44.580Z,11.18
2018-09-09T01:54:13.126Z,10.86
2018-09-09T01:56:42.319Z,11.06
2018-09-09T01:59:11.543Z,11.21
2018-09-09T02:01:40.203Z,11.27
2018-09-09T02:04:08.706Z,11.25
2018-09-09T02:06:37.361Z,11.15
2018-09-09T02:09:06.581Z,11.08
2018-09-09T02:11:35.646Z,10.90
2018-09-09T02:14:04.168Z,11.07
2018-09-09T02:16:32.782Z,11.15
2018-09-09T02:19:02.096Z,11.27
2018-09-09T02:21:30.698Z,11.29
2018-09-09T02:23:59.279Z,11.26
2018-09-09T02:26:27.846Z,11.15
2018-09-09T02:28:56.486Z,11.06
2018-09-09T02:31:25.018Z,11.08
2018-09-09T02:33:53.657Z,11.03
2018-09-09T02:36:22.919Z,10.93
2018-09-09T02:38:52.806Z,10.80
2018-09-09T02:41:22.374Z,10.76
2018-09-09T02:43:50.984Z,10.79
2018-09-09T02:46:19.595Z,10.75
2018-09-09T02:48:48.182Z,10.83
2018-09-09T02:51:16.737Z,10.83
2018-09-09T02:53:45.230Z,10.81
2018-09-09T02:56:13.786Z,10.84
2018-09-09T02:58:43.304Z,10.87
2018-09-09T03:01:11.886Z,10.89
2018-09-09T03:03:40.528Z,10.87
2018-09-09T03:06:09.061Z,10.82
2018-09-09T03:08:38.327Z,10.87
2018-09-09T03:11:12.222Z,10.88
2018-09-09T03:13:40.762Z,10.86
2018-09-09T03:16:09.476Z,10.84
2018-09-09T03:18:38.801Z,10.81
2018-09-09T03:21:07.926Z,10.81
2018-09-09T03:23:36.568Z,10.76
2018-09-09T03:26:05.716Z,10.66
2018-09-09T03:28:34.367Z,10.53
2018-09-09T03:31:03.420Z,10.42
2018-09-09T03:33:31.950Z,10.37
2018-09-09T03:36:00.451Z,10.30
2018-09-09T03:38:28.896Z,10.17
2018-09-09T03:40:57.402Z,10.18
2018-09-09T03:43:25.964Z,10.25
2018-09-09T03:45:54.475Z,10.29
2018-09-09T03:48:23.590Z,10.28
2018-09-09T03:50:52.224Z,10.08
2018-09-09T03:53:20.782Z,10.29
2018-09-09T03:55:49.942Z,10.31
2018-09-09T03:58:19.253Z,10.23
2018-09-09T04:00:47.805Z,9.96
2018-09-09T04:03:16.341Z,9.94
2018-09-09T04:05:45.436Z,9.96
2018-09-09T04:08:14.886Z,9.63
2018-09-09T04:10:44.023Z,9.69
2018-09-09T04:13:12.554Z,9.86
2018-09-09T04:15:41.087Z,9.80
2018-09-09T04:18:10.132Z,9.46
2018-09-09T04:20:38.674Z,9.66
2018-09-09T04:23:07.252Z,9.81
2018-09-09T04:25:35.771Z,9.69
2018-09-09T04:28:04.239Z,9.84
2018-09-09T04:30:32.827Z,9.84
2018-09-09T04:33:01.385Z,9.93
2018-09-09T04:35:29.840Z,9.82
2018-09-09T04:37:58.305Z,9.62
2018-09-09T04:40:27.444Z,9.69
2018-09-09T04:42:56.227Z,9.79
2018-09-09T04:45:24.702Z,9.81
2018-09-09T04:47:53.212Z,9.82
2018-09-09T04:50:21.866Z,9.85
2018-09-09T04:52:50.343Z,9.71
2018-09-09T04:55:18.814Z,9.54
2018-09-09T04:57:47.290Z,9.66
2018-09-09T05:00:15.870Z,9.72
2018-09-09T05:02:45.182Z,9.82
2018-09-09T05:05:13.702Z,9.81
2018-09-09T05:07:42.244Z,9.80
2018-09-09T05:10:10.775Z,9.82
2018-09-09T05:12:39.428Z,9.84
2018-09-09T05:18:39.408Z,9.90
2018-09-09T05:21:07.965Z,9.83
2018-09-09T05:23:36.614Z,9.83
2018-09-09T05:26:05.139Z,9.90
2018-09-09T05:28:33.623Z,9.91
2018-09-09T05:31:02.212Z,9.74
2018-09-09T05:33:30.738Z,9.74
2018-09-09T05:35:59.298Z,9.88
2018-09-09T05:38:28.611Z,10.05
2018-09-09T05:40:57.192Z,10.26
2018-09-09T05:43:26.361Z,10.28
2018-09-09T05:45:55.047Z,10.15
2018-09-09T05:48:23.623Z,10.45
2018-09-09T05:50:52.174Z,10.25
2018-09-09T05:53:21.373Z,11.43
2018-09-09T05:55:49.932Z,11.39
2018-09-09T05:58:18.538Z,11.79
2018-09-09T06:00:47.063Z,12.16
2018-09-09T06:03:16.718Z,12.31
2018-09-09T06:05:45.292Z,12.52
2018-09-09T06:08:13.912Z,12.70
2018-09-09T06:10:42.476Z,12.41
2018-09-09T06:13:10.987Z,12.74
2018-09-09T06:15:40.742Z,12.79
2018-09-09T06:18:09.227Z,12.93
2018-09-09T06:20:37.850Z,12.89
2018-09-09T06:23:07.646Z,12.93
2018-09-09T06:25:36.113Z,13.15
2018-09-09T06:28:04.587Z,13.48
2018-09-09T06:30:35.253Z,14.02
2018-09-09T06:33:04.231Z,14.15
2018-09-09T06:35:32.765Z,13.71
2018-09-09T06:38:01.277Z,14.65
2018-09-09T06:40:29.927Z,14.53
2018-09-09T06:42:58.464Z,14.68
2018-09-09T06:45:29.415Z,14.81
2018-09-09T06:47:57.915Z,15.13
2018-09-09T06:50:26.459Z,15.13
2018-09-09T06:52:55.992Z,15.68
2018-09-09T06:55:24.556Z,15.61
2018-09-09T06:57:53.131Z,15.84
2018-09-09T07:00:22.801Z,16.83
2018-09-09T07:02:51.395Z,17.41
2018-09-09T07:05:19.886Z,16.82
2018-09-09T07:07:48.392Z,16.13
2018-09-09T07:10:17.031Z,17.35
2018-09-09T07:12:46.310Z,17.45
2018-09-09T07:15:14.895Z,18.36
2018-09-09T07:17:43.436Z,18.69
2018-09-09T07:20:11.912Z,18.12
2018-09-09T07:22:40.414Z,18.58
2018-09-09T07:25:08.794Z,18.44
2018-09-09T07:27:37.255Z,18.43
2018-09-09T07:30:06.320Z,19.07
2018-09-09T07:32:35.615Z,18.40
2018-09-09T07:35:04.248Z,17.24
2018-09-09T07:37:32.762Z,17.32
2018-09-09T07:40:01.215Z,17.03
2018-09-09T07:42:29.756Z,17.73
2018-09-09T07:45:05.201Z,18.45
2018-09-09T07:47:34.470Z,19.65
2018-09-09T07:50:02.956Z,19.82
2018-09-09T07:52:31.465Z,19.42
2018-09-09T07:55:00.130Z,18.28
2018-09-09T07:57:28.626Z,18.41
2018-09-09T07:59:57.877Z,19.28
2018-09-09T08:02:26.386Z,19.69
2018-09-09T08:04:54.922Z,21.12
2018-09-09T08:07:23.577Z,20.67
2018-09-09T08:09:52.065Z,20.07
2018-09-09T08:12:20.742Z,21.49
2018-09-09T08:14:49.187Z,20.96
2018-09-09T08:17:17.704Z,20.77
2018-09-09T08:19:46.241Z,21.73
2018-09-09T08:22:14.846Z,22.44
2018-09-09T08:24:44.039Z,22.13
2018-09-09T08:27:12.679Z,21.65
2018-09-09T08:29:41.324Z,22.34
2018-09-09T08:32:09.895Z,21.18
2018-09-09T08:34:38.483Z,21.73
2018-09-09T08:37:07.001Z,21.53
2018-09-09T08:39:35.467Z,22.02
2018-09-09T08:42:03.950Z,22.86
2018-09-09T08:44:33.171Z,22.89
2018-09-09T08:47:01.696Z,23.18
2018-09-09T08:49:30.786Z,22.95
2018-09-09T08:51:59.296Z,23.63
2018-09-09T08:54:27.733Z,23.96
2018-09-09T08:56:56.194Z,24.14
2018-09-09T08:59:24.733Z,23.17
2018-09-09T09:01:53.542Z,23.61
2018-09-09T09:04:22.797Z,23.89
2018-09-09T09:06:51.295Z,24.18
2018-09-09T09:09:19.862Z,24.44
2018-09-09T09:11:48.392Z,25.19
2018-09-09T09:14:16.881Z,24.94
2018-09-09T09:16:45.415Z,25.24
2018-09-09T09:19:13.939Z,25.43
2018-09-09T09:21:42.480Z,25.41
2018-09-09T09:24:11.598Z,25.16
2018-09-09T09:26:40.079Z,26.08
2018-09-09T09:29:08.583Z,25.02
2018-09-09T09:31:37.100Z,25.46
2018-09-09T09:34:05.644Z,24.60
2018-09-09T09:36:34.200Z,24.87
2018-09-09T09:39:02.719Z,25.27
2018-09-09T09:41:31.222Z,25.30
2018-09-09T09:43:59.804Z,25.89
2018-09-09T09:46:28.340Z,26.37
2018-09-09T09:48:56.804Z,25.30
2018-09-09T09:51:25.282Z,24.48
2018-09-09T09:53:54.375Z,26.06
2018-09-09T09:56:22.843Z,25.94
2018-09-09T09:58:51.311Z,26.23
2018-09-09T10:01:19.797Z,26.82
2018-09-09T10:03:49.136Z,25.42
2018-09-09T10:06:17.640Z,25.74
2018-09-09T10:08:46.128Z,26.08
2018-09-09T10:11:15.266Z,26.93
2018-09-09T10:13:43.710Z,26.79
2018-09-09T10:16:12.812Z,26.07
2018-09-09T10:18:41.332Z,26.70
2018-09-09T10:21:09.928Z,26.42
2018-09-09T10:23:38.616Z,27.68
2018-09-09T10:26:07.277Z,27.51
2018-09-09T10:28:36.251Z,28.56
2018-09-09T10:31:04.941Z,28.64
2018-09-09T10:33:33.449Z,29.72
2018-09-09T10:36:02.029Z,28.72
2018-09-09T10:38:31.580Z,27.88
2018-09-09T10:41:00.055Z,28.29
2018-09-09T10:43:30.269Z,28.38
2018-09-09T10:45:58.821Z,26.95
2018-09-09T10:48:28.599Z,27.34
2018-09-09T10:50:57.182Z,27.43
2018-09-09T10:53:25.662Z,27.09
2018-09-09T10:55:55.000Z,27.15
2018-09-09T10:58:23.475Z,27.39
2018-09-09T11:00:52.155Z,28.37
2018-09-09T11:03:20.652Z,28.33
2018-09-09T11:05:49.159Z,27.79
2018-09-09T11:08:18.129Z,28.39
2018-09-09T11:10:47.053Z,28.53
2018-09-09T11:13:16.458Z,26.97
2018-09-09T11:15:45.024Z,27.43
2018-09-09T11:18:14.990Z,27.73
2018-09-09T11:20:43.619Z,28.15
2018-09-09T11:23:12.139Z,28.08
2018-09-09T11:25:41.251Z,29.14
2018-09-09T11:28:09.752Z,29.56
2018-09-09T11:30:38.280Z,29.24
2018-09-09T11:33:06.998Z,29.24
2018-09-09T11:35:35.978Z,29.08
2018-09-09T11:38:04.427Z,25.85
2018-09-09T11:40:33.049Z,26.22
2018-09-09T11:43:01.551Z,26.45
2018-09-09T11:45:30.052Z,26.50
2018-09-09T11:47:58.539Z,26.98
2018-09-09T11:50:27.046Z,28.33
2018-09-09T11:52:56.224Z,29.04
2018-09-09T11:55:24.717Z,28.80
2018-09-09T11:57:53.176Z,25.48
2018-09-09T12:00:21.704Z,26.32
2018-09-09T12:02:50.199Z,27.69
2018-09-09T12:05:18.713Z,28.00
2018-09-09T12:07:47.236Z,26.66
2018-09-09T12:10:15.748Z,28.02
2018-09-09T12:12:44.273Z,27.80
2018-09-09T12:15:12.750Z,28.23
2018-09-09T12:17:41.225Z,29.37
2018-09-09T12:20:09.764Z,29.45
2018-09-09T12:22:38.302Z,29.85
2018-09-09T12:25:06.742Z,29.00
2018-09-09T12:27:35.498Z,28.61
2018-09-09T12:30:03.963Z,28.73
2018-09-09T12:32:33.497Z,28.67
2018-09-09T12:35:02.002Z,29.23
2018-09-09T12:37:30.483Z,29.14
2018-09-09T12:39:58.966Z,28.91
2018-09-09T12:42:28.386Z,29.70
2018-09-09T12:45:02.089Z,29.16
2018-09-09T12:47:35.863Z,28.57
2018-09-09T12:50:04.359Z,29.36
2018-09-09T12:52:33.977Z,28.32
2018-09-09T12:55:02.465Z,28.31
2018-09-09T12:57:30.923Z,28.31
2018-09-09T12:59:59.485Z,27.86
2018-09-09T13:02:28.726Z,27.85
2018-09-09T13:04:57.255Z,28.76
2018-09-09T13:07:25.779Z,27.54
2018-09-09T13:09:54.307Z,27.53
2018-09-09T13:12:22.773Z,27.68
2018-09-09T13:14:52.114Z,27.74
2018-09-09T13:17:20.606Z,26.88
2018-09-09T13:19:49.035Z,26.47
2018-09-09T13:22:17.652Z,27.55
2018-09-09T13:24:46.145Z,28.27
2018-09-09T13:27:14.654Z,28.65
2018-09-09T13:29:43.191Z,28.91
2018-09-09T13:32:13.009Z,29.42
2018-09-09T13:34:41.651Z,28.89
2018-09-09T13:37:10.238Z,27.80
2018-09-09T13:39:38.787Z,28.43
2018-09-09T13:42:08.553Z,27.41
2018-09-09T13:44:38.724Z,28.03
2018-09-09T13:47:07.221Z,27.64
2018-09-09T13:49:37.166Z,27.66
2018-09-09T13:52:05.642Z,27.67
2018-09-09T13:54:36.719Z,27.07
2018-09-09T13:57:06.559Z,27.37
2018-09-09T13:59:35.063Z,26.60
2018-09-09T14:02:04.727Z,26.96
2018-09-09T14:04:33.749Z,24.93
2018-09-09T14:07:03.090Z,26.14
2018-09-09T14:09:31.708Z,25.92
2018-09-09T14:12:00.206Z,25.78
2018-09-09T14:14:29.275Z,26.03
2018-09-09T14:16:57.786Z,25.94
2018-09-09T14:19:26.319Z,25.51
2018-09-09T14:21:54.899Z,25.57
2018-09-09T14:24:23.337Z,25.67
2018-09-09T14:26:51.867Z,26.05
2018-09-09T14:29:20.422Z,26.18
2018-09-09T14:31:48.914Z,25.94
2018-09-09T14:34:17.374Z,25.68
2018-09-09T14:36:45.871Z,25.51
2018-09-09T14:39:14.610Z,25.83
2018-09-09T14:41:43.367Z,25.33
2018-09-09T14:44:11.874Z,25.17
2018-09-09T14:46:40.377Z,25.14
2018-09-09T14:49:08.874Z,25.35
2018-09-09T14:51:37.353Z,25.35
2018-09-09T14:54:05.907Z,25.29
2018-09-09T14:56:34.644Z,25.50
2018-09-09T14:59:03.734Z,25.45
2018-09-09T15:01:32.291Z,25.40
2018-09-09T15:04:00.813Z,25.34
2018-09-09T15:06:29.266Z,25.48
2018-09-09T15:08:57.786Z,25.53
2018-09-09T15:11:26.268Z,25.28
2018-09-09T15:13:54.799Z,25.24
2018-09-09T15:16:23.352Z,25.17
2018-09-09T15:18:52.009Z,25.17
2018-09-09T15:21:20.502Z,25.25
2018-09-09T15:23:48.986Z,25.29
2018-09-09T15:26:17.863Z,25.20
2018-09-09T15:28:46.411Z,25.18
2018-09-09T15:31:15.618Z,25.15
2018-09-09T15:33:44.131Z,25.05
2018-09-09T15:36:12.619Z,24.97
2018-09-09T15:38:41.119Z,24.96
2018-09-09T15:41:10.175Z,24.99
2018-09-09T15:43:38.847Z,25.02
2018-09-09T15:46:07.638Z,25.08
2018-09-09T15:48:36.268Z,25.01
2018-09-09T15:51:04.779Z,24.93
2018-09-09T15:53:34.318Z,24.82
2018-09-09T15:56:02.871Z,24.84
2018-09-09T15:58:32.078Z,24.83
2018-09-09T16:01:02.098Z,24.58
2018-09-09T16:03:31.208Z,24.71
2018-09-09T16:05:59.892Z,24.59
2018-09-09T16:08:28.531Z,24.61
2018-09-09T16:10:57.203Z,24.52
2018-09-09T16:13:26.433Z,24.59
2018-09-09T16:15:55.114Z,24.61
2018-09-09T16:18:23.817Z,24.60
2018-09-09T16:20:52.432Z,24.43
2018-09-09T16:23:21.122Z,24.35
2018-09-09T16:25:50.096Z,24.33
2018-09-09T16:28:19.358Z,24.24
2018-09-09T16:30:47.877Z,24.34
2018-09-09T16:33:16.416Z,24.24
2018-09-09T16:35:44.951Z,24.22
2018-09-09T16:38:13.528Z,24.12
2018-09-09T16:40:42.654Z,24.19
2018-09-09T16:43:11.246Z,24.16
2018-09-09T16:45:39.793Z,24.16
2018-09-09T16:48:08.303Z,24.09
2018-09-09T16:50:36.864Z,24.00
2018-09-09T16:53:05.609Z,23.91
2018-09-09T16:55:34.070Z,23.91
2018-09-09T16:58:02.827Z,23.82
2018-09-09T17:00:32.054Z,23.71
2018-09-09T17:03:01.862Z,23.27
2018-09-09T17:05:30.469Z,23.18
2018-09-09T17:07:59.580Z,23.02
2018-09-09T17:10:28.171Z,22.94
2018-09-09T17:12:56.718Z,22.69
2018-09-09T17:15:25.212Z,22.65
2018-09-09T17:17:53.706Z,22.43
2018-09-09T17:20:23.478Z,22.23
2018-09-09T17:22:52.558Z,22.11
2018-09-09T17:25:21.072Z,22.09
2018-09-09T17:27:49.683Z,22.03
2018-09-09T17:30:19.003Z,21.91
2018-09-09T17:32:48.127Z,21.68
2018-09-09T17:35:16.609Z,21.61
2018-09-09T17:37:45.065Z,21.32
2018-09-09T17:40:13.598Z,20.82
2018-09-09T17:42:43.623Z,20.61
2018-09-09T17:45:12.248Z,20.44
2018-09-09T17:47:40.659Z,20.03
2018-09-09T17:50:10.351Z,19.92
2018-09-09T17:52:41.013Z,19.87
2018-09-09T17:55:09.864Z,19.75
2018-09-09T17:57:38.328Z,19.59
2018-09-09T18:00:10.088Z,19.44
2018-09-09T18:02:39.862Z,19.29
2018-09-09T18:05:08.770Z,19.10
2018-09-09T18:07:37.909Z,18.91
2018-09-09T18:10:06.828Z,18.71
2018-09-09T18:12:35.302Z,18.51
2018-09-09T18:15:03.795Z,18.34
2018-09-09T18:17:32.828Z,18.25
2018-09-09T18:20:01.320Z,18.26
2018-09-09T18:22:30.560Z,18.25
2018-09-09T18:24:59.139Z,18.10
2018-09-09T18:27:27.900Z,18.03
2018-09-09T18:29:56.596Z,17.86
2018-09-09T18:32:24.945Z,17.83
2018-09-09T18:34:53.536Z,17.75
2018-09-09T18:37:22.166Z,17.65
2018-09-09T18:39:50.654Z,17.55
2018-09-09T18:42:19.939Z,17.49
2018-09-09T18:44:48.565Z,17.40
2018-09-09T18:47:17.072Z,17.13
2018-09-09T18:49:45.787Z,17.07
2018-09-09T18:52:14.575Z,16.96
2018-09-09T18:54:43.211Z,16.77
2018-09-09T18:57:11.723Z,16.66
2018-09-09T18:59:40.259Z,16.47
2018-09-09T19:02:08.787Z,16.42
2018-09-09T19:04:38.843Z,16.29
2018-09-09T19:07:07.401Z,16.28
2018-09-09T19:09:35.894Z,16.18
2018-09-09T19:12:04.347Z,16.08
2018-09-09T19:14:32.775Z,16.09
2018-09-09T19:17:01.848Z,15.85
2018-09-09T19:19:30.654Z,16.01
2018-09-09T19:22:00.027Z,15.89
2018-09-09T19:24:29.318Z,15.71
2018-09-09T19:26:57.824Z,15.67
2018-09-09T19:29:26.289Z,15.64
2018-09-09T19:31:54.816Z,15.63
2018-09-09T19:34:23.230Z,15.60
2018-09-09T19:36:51.847Z,15.49
2018-09-09T19:39:20.310Z,15.35
2018-09-09T19:41:48.887Z,15.27
2018-09-09T19:44:17.482Z,15.25
2018-09-09T19:46:45.888Z,14.98
2018-09-09T19:49:14.329Z,14.89
2018-09-09T19:51:42.906Z,14.97
2018-09-09T19:54:12.466Z,14.93
2018-09-09T19:56:40.960Z,14.85
2018-09-09T19:59:09.500Z,14.78
2018-09-09T20:01:38.711Z,14.85
2018-09-09T20:04:07.203Z,14.85
2018-09-09T20:06:35.768Z,14.83
2018-09-09T20:09:04.657Z,14.82
2018-09-09T20:11:33.161Z,14.71
2018-09-09T20:14:01.641Z,14.59
2018-09-09T20:16:30.677Z,14.46
2018-09-09T20:18:59.130Z,14.41
2018-09-09T20:21:27.734Z,14.39
2018-09-09T20:23:56.187Z,14.31
2018-09-09T20:26:24.639Z,14.21
2018-09-09T20:28:53.091Z,14.12
2018-09-09T20:31:21.586Z,14.05
2018-09-09T20:33:50.114Z,14.01
2018-09-09T20:36:18.633Z,13.99
2018-09-09T20:38:47.163Z,13.89
2018-09-09T20:41:15.654Z,13.83
2018-09-09T20:43:44.236Z,13.75
2018-09-09T20:46:12.785Z,13.69
2018-09-09T20:48:41.303Z,13.60
2018-09-09T20:51:10.449Z,13.58
2018-09-09T20:53:38.940Z,13.56
2018-09-09T20:56:07.477Z,13.58
2018-09-09T20:58:36.074Z,13.59
2018-09-09T21:01:04.575Z,13.60
2018-09-09T21:03:33.338Z,13.58
2018-09-09T21:06:03.202Z,13.44
2018-09-09T21:08:32.155Z,13.38
2018-09-09T21:11:00.731Z,13.41
2018-09-09T21:13:30.542Z,13.37
2018-09-09T21:15:58.960Z,13.43
2018-09-09T21:18:27.524Z,13.41
2018-09-09T21:20:55.945Z,13.32
2018-09-09T21:23:24.342Z,13.31
2018-09-09T21:25:53.372Z,13.33
2018-09-09T21:28:23.043Z,13.37
2018-09-09T21:30:51.872Z,13.34
2018-09-09T21:33:20.606Z,13.29
2018-09-09T21:35:49.137Z,13.16
2018-09-09T21:38:17.627Z,13.10
2018-09-09T21:40:46.155Z,13.05
2018-09-09T21:43:14.676Z,13.01
2018-09-09T21:45:43.186Z,12.95
2018-09-09T21:48:11.717Z,12.87
2018-09-09T21:50:40.193Z,12.81
2018-09-09T21:53:08.986Z,12.79
2018-09-09T21:55:37.974Z,12.75
2018-09-09T21:58:06.649Z,12.72
2018-09-09T22:00:39.280Z,12.73
2018-09-09T22:03:07.770Z,12.71
2018-09-09T22:05:37.213Z,12.79
2018-09-09T22:08:06.167Z,12.66
2018-09-09T22:10:35.665Z,12.66
2018-09-09T22:13:04.697Z,12.67
2018-09-09T22:15:33.260Z,12.58
2018-09-09T22:18:01.739Z,12.52
2018-09-09T22:20:30.285Z,12.44
2018-09-09T22:22:58.721Z,11.46
2018-09-09T22:25:27.311Z,12.39
2018-09-09T22:27:55.807Z,12.34
2018-09-09T22:30:24.303Z,12.29
2018-09-09T22:32:52.798Z,12.31
2018-09-09T22:35:21.231Z,12.23
2018-09-09T22:37:49.756Z,12.26
2018-09-09T22:40:18.869Z,12.10
2018-09-09T22:42:48.761Z,11.98
2018-09-09T22:45:18.203Z,11.83
2018-09-09T22:47:46.874Z,11.91
2018-09-09T22:50:15.395Z,12.10
2018-09-09T22:52:44.162Z,11.98
2018-09-09T22:55:12.727Z,11.96
2018-09-09T22:57:41.249Z,11.89
2018-09-09T23:00:09.807Z,11.93
2018-09-09T23:02:38.383Z,12.00
2018-09-09T23:05:07.123Z,12.00
2018-09-09T23:07:35.762Z,11.88
2018-09-09T23:10:04.315Z,11.72
2018-09-09T23:12:32.920Z,11.75
2018-09-09T23:15:02.626Z,11.79
2018-09-09T23:17:31.362Z,11.82
2018-09-09T23:19:59.838Z,11.83
2018-09-09T23:22:28.399Z,11.82
2018-09-09T23:24:57.156Z,11.83
2018-09-09T23:27:25.722Z,11.87
2018-09-09T23:29:54.230Z,11.78
2018-09-09T23:32:22.777Z,11.70
2018-09-09T23:34:51.280Z,11.53
2018-09-09T23:37:19.788Z,11.52
2018-09-09T23:39:49.100Z,11.31
2018-09-09T23:42:18.292Z,11.41
2018-09-09T23:44:46.789Z,11.54
2018-09-09T23:48:44.490Z,11.57
2018-09-09T23:51:12.964Z,11.58
2018-09-09T23:53:41.476Z,11.59
2018-09-09T23:56:09.975Z,11.51
2018-09-09T23:58:39.581Z,11.47
